createdAt,value
2022-10-19T00:01:04.184Z,101767.84
2022-10-19T00:03:32.413Z,101754.28
2022-10-19T00:06:00.809Z,101769.56
2022-10-19T00:08:28.890Z,101755.91
2022-10-19T00:10:56.696Z,101779.75
2022-10-19T00:13:24.619Z,101778.66
2022-10-19T00:15:52.514Z,101761.31
2022-10-19T00:18:21.872Z,101791.31
2022-10-19T00:20:49.781Z,101786.69
2022-10-19T00:23:17.798Z,101794.41
2022-10-19T00:25:56.148Z,101796.91
2022-10-19T00:28:24.142Z,101802.09
2022-10-19T00:30:52.131Z,101802.09
2022-10-19T00:33:22.635Z,101804.69
2022-10-19T00:35:52.122Z,101801.19
2022-10-19T00:38:21.272Z,101806.41
2022-10-19T00:40:50.267Z,101782.31
2022-10-19T00:43:20.453Z,101800.09
2022-10-19T00:45:48.608Z,101815.50
2022-10-19T00:48:20.108Z,101821.19
2022-10-19T00:50:51.394Z,101827.78
2022-10-19T00:53:19.486Z,101771.56
2022-10-19T00:55:47.950Z,101825.38
2022-10-19T00:58:16.353Z,101731.06
2022-10-19T01:00:44.470Z,101830.84
2022-10-19T01:03:13.525Z,101826.25
2022-10-19T01:05:42.452Z,101752.03
2022-10-19T01:08:12.788Z,101845.03
2022-10-19T01:10:47.928Z,101848.31
2022-10-19T01:13:26.989Z,101845.50
2022-10-19T01:16:03.025Z,101852.19
2022-10-19T01:18:39.321Z,101855.38
2022-10-19T01:21:22.669Z,101857.66
2022-10-19T01:24:37.014Z,101842.94
2022-10-19T01:27:34.242Z,101859.50
2022-10-19T01:30:08.601Z,101867.88
2022-10-19T01:32:46.648Z,101871.06
2022-10-19T01:35:24.625Z,101865.66
2022-10-19T01:38:03.657Z,101835.72
2022-10-19T01:40:37.926Z,101858.72
2022-10-19T01:43:13.234Z,101868.72
2022-10-19T01:45:48.616Z,101871.22
2022-10-19T01:48:22.681Z,101868.41
2022-10-19T01:50:55.205Z,101875.19
2022-10-19T01:53:25.578Z,101869.78
2022-10-19T01:55:56.538Z,101843.97
2022-10-19T01:58:29.397Z,101844.78
2022-10-19T02:01:02.696Z,101873.84
2022-10-19T02:03:30.850Z,101873.75
2022-10-19T02:06:00.616Z,101875.44
2022-10-19T02:08:32.819Z,101877.03
2022-10-19T02:11:02.688Z,101879.50
2022-10-19T02:13:31.749Z,101875.91
2022-10-19T02:16:04.820Z,101874.91
2022-10-19T02:18:37.617Z,101850.47
2022-10-19T02:21:07.272Z,101878.19
2022-10-19T02:23:35.500Z,101892.84
2022-10-19T02:26:04.071Z,101894.44
2022-10-19T02:28:32.951Z,101889.03
2022-10-19T02:31:02.483Z,101896.91
2022-10-19T02:33:30.956Z,101869.66
2022-10-19T02:35:59.938Z,101900.19
2022-10-19T02:38:28.364Z,101886.09
2022-10-19T02:41:05.601Z,101898.16
2022-10-19T02:43:35.879Z,101859.53
2022-10-19T02:46:09.464Z,101906.53
2022-10-19T02:48:40.130Z,101887.47
2022-10-19T02:51:07.955Z,101903.50
2022-10-19T02:53:35.980Z,101892.56
2022-10-19T02:56:03.969Z,101907.56
2022-10-19T02:58:31.787Z,101889.63
2022-10-19T03:00:59.823Z,101895.72
2022-10-19T03:03:29.114Z,101911.63
2022-10-19T03:05:56.927Z,101873.75
2022-10-19T03:08:24.916Z,101920.88
2022-10-19T03:10:52.912Z,101839.03
2022-10-19T03:13:20.740Z,101919.06
2022-10-19T03:15:48.874Z,101920.75
2022-10-19T03:18:16.814Z,101916.34
2022-10-19T03:20:46.095Z,101916.34
2022-10-19T03:23:14.075Z,101905.31
2022-10-19T03:25:41.998Z,101898.09
2022-10-19T03:28:09.848Z,101898.31
2022-10-19T03:30:37.853Z,101927.63
2022-10-19T03:33:05.846Z,101931.00
2022-10-19T03:35:33.667Z,101930.00
2022-10-19T03:38:02.914Z,101935.97
2022-10-19T03:40:30.791Z,101934.97
2022-10-19T03:42:58.601Z,101936.66
2022-10-19T03:45:26.524Z,101929.56
2022-10-19T03:47:54.447Z,101942.50
2022-10-19T03:50:22.308Z,101935.53
2022-10-19T03:52:50.675Z,101942.41
2022-10-19T03:55:20.048Z,101948.25
2022-10-19T03:57:47.886Z,101940.25
2022-10-19T04:00:16.616Z,101953.09
2022-10-19T04:02:44.614Z,101959.97
2022-10-19T04:05:12.492Z,101954.69
2022-10-19T04:07:40.415Z,101964.16
2022-10-19T04:10:09.056Z,101947.34
2022-10-19T04:12:38.253Z,101950.63
2022-10-19T04:15:06.887Z,101954.34
2022-10-19T04:17:35.108Z,101954.22
2022-10-19T04:20:03.133Z,101961.00
2022-10-19T04:22:31.060Z,101888.81
2022-10-19T04:24:59.077Z,101961.53
2022-10-19T04:27:26.858Z,101962.22
2022-10-19T04:29:56.109Z,101954.88
2022-10-19T04:32:24.059Z,101976.88
2022-10-19T04:34:51.939Z,101982.84
2022-10-19T04:37:19.951Z,101981.03
2022-10-19T04:39:47.824Z,101979.22
2022-10-19T04:42:15.615Z,101935.69
2022-10-19T04:44:43.625Z,101980.81
2022-10-19T04:47:12.938Z,101983.41
2022-10-19T04:49:40.744Z,101988.81
2022-10-19T04:52:08.644Z,101975.16
2022-10-19T04:54:36.581Z,102005.94
2022-10-19T04:57:05.207Z,102004.91
2022-10-19T04:59:33.297Z,102014.50
2022-10-19T05:02:01.235Z,102006.59
2022-10-19T05:04:30.622Z,102017.09
2022-10-19T05:06:58.554Z,102024.63
2022-10-19T05:09:26.676Z,102021.13
2022-10-19T05:11:54.626Z,102020.22
2022-10-19T05:14:22.918Z,102021.25
2022-10-19T05:16:50.731Z,102017.53
2022-10-19T05:19:18.961Z,102025.31
2022-10-19T05:21:48.277Z,102008.03
2022-10-19T05:24:16.138Z,101996.53
2022-10-19T05:26:44.100Z,102024.03
2022-10-19T05:29:14.692Z,102014.91
2022-10-19T05:31:42.647Z,101990.41
2022-10-19T05:34:10.789Z,102031.47
2022-10-19T05:36:40.262Z,101962.06
2022-10-19T05:39:14.578Z,102036.75
2022-10-19T05:41:44.550Z,102032.25
2022-10-19T05:44:16.181Z,102036.41
2022-10-19T05:46:44.602Z,102006.50
2022-10-19T05:49:12.887Z,102012.94
2022-10-19T05:51:40.953Z,102040.69
2022-10-19T05:54:11.268Z,102040.69
2022-10-19T05:56:39.862Z,101980.97
2022-10-19T05:59:09.397Z,102039.78
2022-10-19T06:01:38.106Z,102038.09
2022-10-19T06:04:07.602Z,102043.41
2022-10-19T06:06:35.804Z,102044.41
2022-10-19T06:09:04.688Z,102043.63
2022-10-19T06:11:36.514Z,102022.31
2022-10-19T06:14:07.312Z,102043.31
2022-10-19T06:16:36.021Z,102031.81
2022-10-19T06:19:05.111Z,102037.34
2022-10-19T06:21:34.799Z,102036.56
2022-10-19T06:24:05.910Z,102057.22
2022-10-19T06:26:36.344Z,102056.56
2022-10-19T06:29:05.365Z,102048.00
2022-10-19T06:31:35.028Z,102062.66
2022-10-19T06:34:03.685Z,102065.28
2022-10-19T06:36:32.772Z,102068.81
2022-10-19T06:39:01.987Z,102068.06
2022-10-19T06:41:30.317Z,102064.16
2022-10-19T06:43:59.633Z,102068.22
2022-10-19T06:46:28.569Z,102069.34
2022-10-19T06:48:58.216Z,102060.31
2022-10-19T06:51:27.779Z,102073.59
2022-10-19T06:53:57.071Z,102021.50
2022-10-19T06:56:26.771Z,102063.13
2022-10-19T06:58:55.296Z,102075.75
2022-10-19T07:01:25.336Z,102082.38
2022-10-19T07:03:53.947Z,102075.31
2022-10-19T07:06:22.477Z,102074.69
2022-10-19T07:08:50.539Z,102089.00
2022-10-19T07:11:22.589Z,102086.38
2022-10-19T07:13:51.026Z,102081.31
2022-10-19T07:16:21.034Z,102079.88
2022-10-19T07:18:52.186Z,102087.09
2022-10-19T07:21:21.929Z,102101.66
2022-10-19T07:23:49.870Z,102093.22
2022-10-19T07:26:21.362Z,102098.56
2022-10-19T07:28:50.018Z,102065.97
2022-10-19T07:31:20.338Z,102053.88
2022-10-19T07:33:48.529Z,102114.94
2022-10-19T07:36:18.019Z,102111.09
2022-10-19T07:38:45.862Z,102116.75
2022-10-19T07:41:16.325Z,102113.81
2022-10-19T07:43:46.433Z,102006.66
2022-10-19T07:46:16.241Z,102115.66
2022-10-19T07:48:45.361Z,102106.16
2022-10-19T07:51:15.457Z,102089.19
2022-10-19T07:53:45.648Z,102117.84
2022-10-19T07:56:15.297Z,102099.94
2022-10-19T07:58:43.853Z,102119.50
2022-10-19T08:01:14.269Z,102109.78
2022-10-19T08:04:42.761Z,102128.06
2022-10-19T08:06:31.085Z,102058.53
2022-10-19T08:09:00.902Z,102121.25
2022-10-19T08:11:31.343Z,102120.56
2022-10-19T08:13:59.905Z,102130.06
2022-10-19T08:16:29.869Z,102121.41
2022-10-19T08:19:00.307Z,102105.66
2022-10-19T08:21:28.860Z,102131.41
2022-10-19T08:23:56.873Z,102137.53
2022-10-19T08:26:26.725Z,102129.56
2022-10-19T08:28:54.642Z,102144.13
2022-10-19T08:31:23.787Z,102144.47
2022-10-19T08:33:52.155Z,102137.25
2022-10-19T08:36:21.408Z,102147.78
2022-10-19T08:38:50.151Z,102138.53
2022-10-19T08:41:28.480Z,102154.13
2022-10-19T08:44:24.246Z,102116.81
2022-10-19T08:47:03.392Z,102145.63
2022-10-19T08:49:33.243Z,102124.88
2022-10-19T08:52:05.881Z,102133.41
2022-10-19T08:54:42.087Z,102124.53
2022-10-19T08:57:24.481Z,102132.56
2022-10-19T09:00:00.431Z,102051.31
2022-10-19T09:02:41.583Z,102136.78
2022-10-19T09:05:20.246Z,102149.38
2022-10-19T09:07:51.596Z,102144.41
2022-10-19T09:10:24.931Z,102141.81
2022-10-19T09:12:58.649Z,102141.75
2022-10-19T09:15:35.040Z,102102.69
2022-10-19T09:18:03.413Z,102144.53
2022-10-19T09:20:39.341Z,102141.47
2022-10-19T09:23:21.184Z,102111.47
2022-10-19T09:25:51.332Z,102149.34
2022-10-19T09:28:39.683Z,102146.94
2022-10-19T09:31:14.340Z,102144.50
2022-10-19T09:33:45.219Z,102141.69
2022-10-19T09:36:22.402Z,102145.97
2022-10-19T09:38:55.773Z,102144.66
2022-10-19T09:41:25.468Z,102145.06
2022-10-19T09:43:55.445Z,102144.09
2022-10-19T09:46:38.895Z,102146.34
2022-10-19T09:49:09.550Z,102146.63
2022-10-19T09:51:47.314Z,102157.69
2022-10-19T09:54:27.674Z,102149.97
2022-10-19T09:56:57.532Z,102153.94
2022-10-19T09:59:29.729Z,102152.50
2022-10-19T10:02:13.053Z,102155.94
2022-10-19T10:04:40.864Z,102159.69
2022-10-19T10:07:17.452Z,102162.63
2022-10-19T10:09:46.267Z,102167.31
2022-10-19T10:12:16.728Z,102158.91
2022-10-19T10:14:45.998Z,102117.19
2022-10-19T10:17:18.954Z,102154.84
2022-10-19T10:20:05.431Z,102155.03
2022-10-19T10:22:35.653Z,102136.75
2022-10-19T10:25:13.793Z,102150.97
2022-10-19T10:27:42.142Z,102151.28
2022-10-19T10:30:18.034Z,102124.19
2022-10-19T10:32:51.021Z,102139.53
2022-10-19T10:35:22.478Z,102134.34
2022-10-19T10:37:51.262Z,102113.84
2022-10-19T10:40:25.523Z,102138.75
2022-10-19T10:42:56.149Z,102134.25
2022-10-19T10:45:27.309Z,102134.25
2022-10-19T10:47:57.863Z,102135.19
2022-10-19T10:50:32.964Z,102132.53
2022-10-19T10:53:02.698Z,102137.00
2022-10-19T10:55:31.933Z,102141.69
2022-10-19T10:58:13.858Z,102141.06
2022-10-19T11:00:43.196Z,102142.28
2022-10-19T11:03:21.418Z,102140.72
2022-10-19T11:05:54.368Z,102147.94
2022-10-19T11:08:27.683Z,102120.38
2022-10-19T11:11:00.976Z,102146.09
2022-10-19T11:13:32.596Z,102097.31
2022-10-19T11:16:04.991Z,102032.50
2022-10-19T11:18:39.690Z,102149.41
2022-10-19T11:21:12.871Z,102148.41
2022-10-19T11:23:53.159Z,102153.78
2022-10-19T11:26:59.845Z,102156.38
2022-10-19T11:29:38.301Z,102157.72
2022-10-19T11:32:17.073Z,102154.09
2022-10-19T11:34:59.369Z,102159.47
2022-10-19T11:37:31.544Z,102158.97
2022-10-19T11:40:14.119Z,102155.31
2022-10-19T11:42:51.862Z,102170.31
2022-10-19T11:45:31.619Z,102165.03
2022-10-19T11:48:15.696Z,102180.50
2022-10-19T11:50:54.411Z,102172.03
2022-10-19T11:53:34.136Z,102043.19
2022-10-19T11:56:08.179Z,102103.19
2022-10-19T11:58:51.409Z,102160.44
2022-10-19T12:01:32.054Z,102163.41
2022-10-19T12:04:19.247Z,102168.56
2022-10-19T12:06:56.312Z,102159.81
2022-10-19T12:09:35.260Z,102112.84
2022-10-19T12:12:19.294Z,102155.72
2022-10-19T12:14:54.044Z,102164.31
2022-10-19T12:17:27.040Z,102162.16
2022-10-19T12:19:57.589Z,102157.91
2022-10-19T12:22:31.505Z,102163.66
2022-10-19T12:25:02.527Z,102156.25
2022-10-19T12:27:35.444Z,102147.38
2022-10-19T12:30:08.133Z,102154.19
2022-10-19T12:32:49.605Z,102149.44
2022-10-19T12:35:33.895Z,102165.28
2022-10-19T12:38:09.937Z,102157.66
2022-10-19T12:40:44.560Z,102160.28
2022-10-19T12:43:22.870Z,102160.69
2022-10-19T12:45:55.740Z,102154.81
2022-10-19T12:48:25.173Z,102149.44
2022-10-19T12:51:17.863Z,102144.41
2022-10-19T12:53:50.182Z,102147.34
2022-10-19T12:56:21.832Z,102123.25
2022-10-19T12:58:56.521Z,102141.91
2022-10-19T13:01:29.516Z,102108.56
2022-10-19T13:04:12.127Z,102148.63
2022-10-19T13:06:43.786Z,102139.41
2022-10-19T13:09:25.473Z,102138.72
2022-10-19T13:12:28.158Z,102145.91
2022-10-19T13:14:57.225Z,102113.63
2022-10-19T13:17:44.071Z,102139.59
2022-10-19T13:20:45.509Z,102138.03
2022-10-19T13:23:42.042Z,102143.91
2022-10-19T13:26:34.121Z,102149.50
2022-10-19T13:29:02.524Z,102127.03
2022-10-19T13:31:33.111Z,102151.59
2022-10-19T13:34:01.400Z,102130.44
2022-10-19T13:36:29.444Z,102149.03
2022-10-19T13:39:08.713Z,102147.00
2022-10-19T13:41:57.101Z,102139.09
2022-10-19T13:44:31.079Z,102146.25
2022-10-19T13:47:19.172Z,102113.69
2022-10-19T13:50:09.347Z,102135.78
2022-10-19T13:53:03.547Z,102143.34
2022-10-19T13:55:57.536Z,102141.38
2022-10-19T13:58:51.902Z,102144.13
2022-10-19T14:01:34.113Z,102123.09
2022-10-19T14:04:18.795Z,102138.47
2022-10-19T14:06:53.385Z,102125.13
2022-10-19T14:09:43.922Z,102146.47
2022-10-19T14:12:19.943Z,102143.91
2022-10-19T14:14:50.282Z,102128.44
2022-10-19T14:17:21.518Z,102141.00
2022-10-19T14:19:52.071Z,102136.75
2022-10-19T14:22:24.436Z,102141.34
2022-10-19T14:24:52.747Z,102147.06
2022-10-19T14:27:24.597Z,102131.03
2022-10-19T14:29:55.411Z,102126.72
2022-10-19T14:32:26.203Z,102120.53
2022-10-19T14:34:55.103Z,102136.63
2022-10-19T14:37:25.965Z,102122.19
2022-10-19T14:40:03.179Z,102132.59
2022-10-19T14:42:39.971Z,102132.34
2022-10-19T14:45:15.479Z,102081.19
2022-10-19T14:47:58.421Z,102109.72
2022-10-19T14:50:33.872Z,102135.09
2022-10-19T14:53:19.324Z,102063.84
2022-10-19T14:55:49.426Z,102125.19
2022-10-19T14:58:22.001Z,102118.63
2022-10-19T15:00:53.286Z,102124.34
2022-10-19T15:03:25.714Z,102129.25
2022-10-19T15:05:57.568Z,102133.34
2022-10-19T15:08:34.048Z,102129.22
2022-10-19T15:11:02.054Z,102134.94
2022-10-19T15:13:35.169Z,102106.88
2022-10-19T15:16:07.294Z,102143.47
2022-10-19T15:18:55.666Z,102138.88
2022-10-19T15:21:23.851Z,102063.84
2022-10-19T15:23:53.571Z,102141.69
2022-10-19T15:26:28.672Z,102146.72
2022-10-19T15:29:09.390Z,102140.16
2022-10-19T15:31:38.730Z,102093.50
2022-10-19T15:34:06.704Z,102134.09
2022-10-19T15:36:34.817Z,102138.88
2022-10-19T15:39:18.214Z,102141.13
2022-10-19T15:41:53.998Z,102143.13
2022-10-19T15:44:33.220Z,102145.44
2022-10-19T15:47:25.453Z,102147.88
2022-10-19T15:49:56.961Z,102146.56
2022-10-19T15:52:26.058Z,102157.53
2022-10-19T15:54:55.699Z,102150.13
2022-10-19T15:57:28.538Z,102148.16
2022-10-19T15:59:58.066Z,102130.94
2022-10-19T16:02:27.834Z,102150.19
2022-10-19T16:04:56.496Z,102149.19
2022-10-19T16:07:28.427Z,102156.94
2022-10-19T16:09:56.463Z,102162.88
2022-10-19T16:12:26.371Z,102147.84
2022-10-19T16:14:54.690Z,102152.88
2022-10-19T16:17:22.833Z,102156.91
2022-10-19T16:19:52.541Z,102151.50
2022-10-19T16:22:20.517Z,102113.63
2022-10-19T16:24:48.493Z,102139.19
2022-10-19T16:27:16.494Z,102127.47
2022-10-19T16:29:45.580Z,102129.81
2022-10-19T16:32:13.978Z,102135.91
2022-10-19T16:34:42.184Z,102156.19
2022-10-19T16:37:11.541Z,102130.13
2022-10-19T16:39:39.438Z,102135.84
2022-10-19T16:42:07.349Z,102135.75
2022-10-19T16:44:35.277Z,102105.72
2022-10-19T16:47:03.285Z,102035.44
2022-10-19T16:49:31.348Z,102152.41
2022-10-19T16:52:00.829Z,102151.41
2022-10-19T16:54:30.841Z,102154.72
2022-10-19T16:56:59.092Z,102157.22
2022-10-19T16:59:27.801Z,102153.63
2022-10-19T17:01:55.834Z,102156.94
2022-10-19T17:04:23.718Z,102157.75
2022-10-19T17:06:51.734Z,102165.47
2022-10-19T17:12:10.166Z,102162.66
2022-10-19T17:14:40.586Z,102147.84
2022-10-19T17:17:09.021Z,102165.66
2022-10-19T17:19:37.701Z,102163.97
2022-10-19T17:22:05.941Z,102141.53
2022-10-19T17:24:33.909Z,102154.94
2022-10-19T17:27:03.965Z,102158.25
2022-10-19T17:29:33.599Z,102158.84
2022-10-19T17:32:01.470Z,102154.06
2022-10-19T17:34:29.555Z,102164.28
2022-10-19T17:37:00.394Z,102156.25
2022-10-19T17:39:29.946Z,102163.06
2022-10-19T17:42:02.215Z,102029.38
2022-10-19T17:44:31.669Z,102155.34
2022-10-19T17:47:01.591Z,102167.28
2022-10-19T17:49:30.315Z,102174.38
2022-10-19T17:51:58.454Z,102178.69
2022-10-19T17:54:26.491Z,102172.47
2022-10-19T17:56:54.529Z,102175.00
2022-10-19T17:59:34.621Z,102156.66
2022-10-19T18:02:11.495Z,102150.44
2022-10-19T18:04:40.110Z,102174.47
2022-10-19T18:07:07.957Z,102170.97
2022-10-19T18:09:36.119Z,102157.13
2022-10-19T18:12:04.984Z,102140.00
2022-10-19T18:14:35.096Z,102164.47
2022-10-19T18:17:03.321Z,102166.06
2022-10-19T18:19:32.918Z,102025.03
2022-10-19T18:22:00.741Z,102165.84
2022-10-19T18:24:28.884Z,102166.66
2022-10-19T18:26:56.744Z,102165.75
2022-10-19T18:29:26.542Z,102160.84
2022-10-19T18:31:55.386Z,102160.63
2022-10-19T18:34:25.101Z,102169.75
2022-10-19T18:36:54.983Z,102175.66
2022-10-19T18:39:23.463Z,102175.56
2022-10-19T18:41:54.544Z,102167.44
2022-10-19T18:44:26.287Z,102143.16
2022-10-19T18:46:56.094Z,102081.59
2022-10-19T18:49:24.035Z,102151.19
2022-10-19T18:51:55.121Z,102145.78
2022-10-19T18:54:26.538Z,102170.84
2022-10-19T18:56:55.126Z,102155.09
2022-10-19T18:59:23.088Z,102155.09
2022-10-19T19:01:51.343Z,102145.38
2022-10-19T19:04:19.385Z,102161.81
2022-10-19T19:06:47.182Z,102157.31
2022-10-19T19:09:15.368Z,102164.22
2022-10-19T19:11:44.602Z,102160.59
2022-10-19T19:14:15.124Z,102079.16
2022-10-19T19:16:44.434Z,102137.59
2022-10-19T19:19:13.901Z,102155.63
2022-10-19T19:21:44.238Z,102139.88
2022-10-19T19:24:15.658Z,102148.09
2022-10-19T19:26:48.353Z,102166.22
2022-10-19T19:29:17.328Z,102014.91
2022-10-19T19:31:45.390Z,102151.28
2022-10-19T19:34:13.357Z,102117.91
2022-10-19T19:36:47.292Z,102155.00
2022-10-19T19:39:16.342Z,102154.91
2022-10-19T19:41:46.693Z,102154.69
2022-10-19T19:44:14.744Z,102154.38
2022-10-19T19:46:42.678Z,102136.22
2022-10-19T19:49:10.621Z,102154.84
2022-10-19T19:51:38.565Z,102152.94
2022-10-19T19:54:06.871Z,102154.66
2022-10-19T19:56:34.917Z,102150.44
2022-10-19T19:59:04.789Z,102099.50
2022-10-19T20:01:33.425Z,102125.41
2022-10-19T20:06:37.191Z,102126.94
2022-10-19T20:09:07.156Z,102165.44
2022-10-19T20:11:39.639Z,102149.06
2022-10-19T20:14:10.724Z,102157.31
2022-10-19T20:16:38.634Z,102159.78
2022-10-19T20:19:08.994Z,102163.09
2022-10-19T20:21:37.450Z,102166.38
2022-10-19T20:24:05.730Z,102150.94
2022-10-19T20:26:34.042Z,102165.38
2022-10-19T20:29:03.916Z,102173.75
2022-10-19T20:31:39.397Z,102086.00
2022-10-19T20:34:13.949Z,102175.91
2022-10-19T20:36:42.326Z,102168.91
2022-10-19T20:39:10.874Z,102168.91
2022-10-19T20:41:39.201Z,102160.22
2022-10-19T20:44:07.075Z,102155.13
2022-10-19T20:46:37.255Z,102145.69
2022-10-19T20:49:05.681Z,102152.91
2022-10-19T20:51:36.795Z,102141.41
2022-10-19T20:54:07.155Z,102147.97
2022-10-19T20:56:36.546Z,102155.56
2022-10-19T20:59:07.625Z,102135.69
2022-10-19T21:01:38.897Z,102145.72
2022-10-19T21:04:09.332Z,102156.22
2022-10-19T21:06:40.931Z,102148.31
2022-10-19T21:09:09.988Z,102133.56
2022-10-19T21:11:39.825Z,102127.66
2022-10-19T21:14:11.535Z,102145.72
2022-10-19T21:16:41.706Z,102137.25
2022-10-19T21:19:12.473Z,102124.28
2022-10-19T21:21:42.884Z,102123.91
2022-10-19T21:24:12.720Z,102140.28
2022-10-19T21:26:41.103Z,102094.25
2022-10-19T21:29:10.609Z,102142.09
2022-10-19T21:31:43.085Z,102113.19
2022-10-19T21:34:15.216Z,102146.91
2022-10-19T21:36:43.271Z,102134.78
2022-10-19T21:39:11.145Z,102133.09
2022-10-19T21:41:39.474Z,102112.47
2022-10-19T21:44:07.631Z,102107.59
2022-10-19T21:46:35.733Z,102113.38
2022-10-19T21:49:05.242Z,102127.81
2022-10-19T21:51:37.612Z,102118.09
2022-10-19T21:54:07.099Z,102115.50
2022-10-19T21:56:35.157Z,102114.50
2022-10-19T21:59:03.017Z,102063.16
2022-10-19T22:01:37.321Z,102111.19
2022-10-19T22:04:12.515Z,102112.91
2022-10-19T22:06:40.962Z,102105.00
2022-10-19T22:09:11.240Z,102099.69
2022-10-19T22:11:39.260Z,102103.09
2022-10-19T22:14:07.456Z,102102.19
2022-10-19T22:16:37.017Z,102106.47
2022-10-19T22:19:06.078Z,102109.06
2022-10-19T22:24:06.696Z,102104.66
2022-10-19T22:26:37.002Z,102100.25
2022-10-19T22:29:06.237Z,102021.78
2022-10-19T22:31:35.448Z,102087.22
2022-10-19T22:34:06.114Z,102090.59
2022-10-19T22:36:35.511Z,102104.72
2022-10-19T22:39:03.708Z,102105.28
2022-10-19T22:41:31.679Z,102101.91
2022-10-19T22:43:59.616Z,102044.84
2022-10-19T22:46:27.516Z,102104.38
2022-10-19T22:48:55.468Z,102106.88
2022-10-19T22:51:23.563Z,102083.53
2022-10-19T22:53:52.895Z,102101.47
2022-10-19T22:56:21.035Z,102106.44
2022-10-19T22:58:49.208Z,102103.75
2022-10-19T23:01:17.797Z,102106.22
2022-10-19T23:03:45.849Z,102105.22
2022-10-19T23:06:16.077Z,102080.16
2022-10-19T23:08:44.465Z,102076.69
2022-10-19T23:11:14.512Z,102115.63
2022-10-19T23:13:43.299Z,102106.25
2022-10-19T23:16:11.445Z,102109.53
2022-10-19T23:18:41.583Z,102113.03
2022-10-19T23:21:12.803Z,102106.84
2022-10-19T23:23:41.493Z,102105.94
2022-10-19T23:26:12.330Z,102104.22
2022-10-19T23:28:43.880Z,102088.66
2022-10-19T23:31:13.953Z,102110.91
2022-10-19T23:33:42.889Z,102106.38
2022-10-19T23:36:14.507Z,102109.00
2022-10-19T23:38:42.852Z,102083.72
2022-10-19T23:41:11.021Z,102081.91
2022-10-19T23:43:39.789Z,102080.69
2022-10-19T23:46:09.724Z,102096.34
2022-10-19T23:48:38.120Z,102102.34
2022-10-19T23:51:07.925Z,102083.84
2022-10-19T23:53:41.509Z,102094.09
2022-10-19T23:56:12.637Z,102015.69
2022-10-19T23:58:40.739Z,102072.22
